sensor_id;sensor_type;location;lat;lon;timestamp;P1;durP1;ratioP1;P2;durP2;ratioP2
12048;SDS011;6085;49.452;8.502;2022-07-18T00:02:52;2.85;;;1.50;;
12048;SDS011;6085;49.452;8.502;2022-07-18T00:06:55;1.60;;;1.50;;
12048;SDS011;6085;49.452;8.502;2022-07-18T00:10:57;1.98;;;1.77;;
12048;SDS011;6085;49.452;8.502;2022-07-18T00:14:59;1.60;;;1.50;;
12048;SDS011;6085;49.452;8.502;2022-07-18T00:19:01;2.65;;;1.58;;
12048;SDS011;6085;49.452;8.502;2022-07-18T00:23:05;1.73;;;1.63;;
12048;SDS011;6085;49.452;8.502;2022-07-18T00:27:07;1.30;;;1.20;;
12048;SDS011;6085;49.452;8.502;2022-07-18T00:31:09;1.60;;;1.50;;
12048;SDS011;6085;49.452;8.502;2022-07-18T00:35:11;1.90;;;1.50;;
12048;SDS011;6085;49.452;8.502;2022-07-18T00:39:14;2.17;;;1.70;;
12048;SDS011;6085;49.452;8.502;2022-07-18T00:43:16;1.58;;;1.45;;
12048;SDS011;6085;49.452;8.502;2022-07-18T00:47:18;1.67;;;1.58;;
12048;SDS011;6085;49.452;8.502;2022-07-18T00:51:20;1.70;;;1.60;;
12048;SDS011;6085;49.452;8.502;2022-07-18T00:55:24;1.60;;;1.50;;
12048;SDS011;6085;49.452;8.502;2022-07-18T00:59:26;1.50;;;1.40;;
12048;SDS011;6085;49.452;8.502;2022-07-18T01:03:49;1.73;;;1.42;;
12048;SDS011;6085;49.452;8.502;2022-07-18T01:07:50;1.88;;;1.70;;
12048;SDS011;6085;49.452;8.502;2022-07-18T01:11:54;1.75;;;1.65;;
12048;SDS011;6085;49.452;8.502;2022-07-18T01:15:56;2.13;;;1.60;;
12048;SDS011;6085;49.452;8.502;2022-07-18T01:19:58;2.88;;;1.60;;
12048;SDS011;6085;49.452;8.502;2022-07-18T01:24:01;2.17;;;1.50;;
12048;SDS011;6085;49.452;8.502;2022-07-18T01:28:03;1.42;;;1.27;;
12048;SDS011;6085;49.452;8.502;2022-07-18T01:32:06;1.77;;;1.50;;
12048;SDS011;6085;49.452;8.502;2022-07-18T01:36:09;3.40;;;1.60;;
12048;SDS011;6085;49.452;8.502;2022-07-18T01:40:12;2.00;;;1.50;;
12048;SDS011;6085;49.452;8.502;2022-07-18T01:44:14;2.63;;;1.67;;
12048;SDS011;6085;49.452;8.502;2022-07-18T01:48:16;2.35;;;1.48;;
12048;SDS011;6085;49.452;8.502;2022-07-18T01:52:19;1.98;;;1.45;;
12048;SDS011;6085;49.452;8.502;2022-07-18T01:56:22;4.28;;;1.52;;
12048;SDS011;6085;49.452;8.502;2022-07-18T02:00:24;1.50;;;1.40;;
12048;SDS011;6085;49.452;8.502;2022-07-18T02:04:26;2.30;;;1.80;;
12048;SDS011;6085;49.452;8.502;2022-07-18T02:08:42;1.42;;;1.33;;
12048;SDS011;6085;49.452;8.502;2022-07-18T02:12:45;1.63;;;1.52;;
12048;SDS011;6085;49.452;8.502;2022-07-18T02:16:48;2.50;;;1.70;;
12048;SDS011;6085;49.452;8.502;2022-07-18T02:20:50;1.92;;;1.60;;
12048;SDS011;6085;49.452;8.502;2022-07-18T02:24:52;2.40;;;1.60;;
12048;SDS011;6085;49.452;8.502;2022-07-18T02:28:55;3.63;;;1.63;;
12048;SDS011;6085;49.452;8.502;2022-07-18T02:32:58;1.80;;;1.45;;
12048;SDS011;6085;49.452;8.502;2022-07-18T02:37:00;1.70;;;1.60;;
12048;SDS011;6085;49.452;8.502;2022-07-18T02:41:02;1.70;;;1.60;;
12048;SDS011;6085;49.452;8.502;2022-07-18T02:45:06;1.52;;;1.38;;
12048;SDS011;6085;49.452;8.502;2022-07-18T02:49:08;1.38;;;1.27;;
12048;SDS011;6085;49.452;8.502;2022-07-18T02:53:26;2.00;;;1.80;;
12048;SDS011;6085;49.452;8.502;2022-07-18T02:57:28;3.03;;;1.98;;
12048;SDS011;6085;49.452;8.502;2022-07-18T03:01:31;1.77;;;1.40;;
12048;SDS011;6085;49.452;8.502;2022-07-18T03:05:33;2.92;;;1.60;;
12048;SDS011;6085;49.452;8.502;2022-07-18T03:09:35;3.08;;;1.55;;
12048;SDS011;6085;49.452;8.502;2022-07-18T03:13:37;3.53;;;1.60;;
12048;SDS011;6085;49.452;8.502;2022-07-18T03:17:41;1.45;;;1.35;;
12048;SDS011;6085;49.452;8.502;2022-07-18T03:21:42;1.20;;;1.20;;
12048;SDS011;6085;49.452;8.502;2022-07-18T03:25:44;1.83;;;1.50;;
12048;SDS011;6085;49.452;8.502;2022-07-18T03:29:47;1.60;;;1.50;;
12048;SDS011;6085;49.452;8.502;2022-07-18T03:33:50;1.77;;;1.50;;
12048;SDS011;6085;49.452;8.502;2022-07-18T03:37:52;1.42;;;1.33;;
12048;SDS011;6085;49.452;8.502;2022-07-18T03:41:54;1.55;;;1.23;;
12048;SDS011;6085;49.452;8.502;2022-07-18T03:45:56;1.42;;;1.33;;
12048;SDS011;6085;49.452;8.502;2022-07-18T03:49:59;1.55;;;1.45;;
12048;SDS011;6085;49.452;8.502;2022-07-18T03:54:01;1.70;;;1.40;;
12048;SDS011;6085;49.452;8.502;2022-07-18T03:58:03;1.48;;;1.33;;
12048;SDS011;6085;49.452;8.502;2022-07-18T04:02:05;1.77;;;1.20;;
12048;SDS011;6085;49.452;8.502;2022-07-18T04:06:08;2.03;;;1.60;;
12048;SDS011;6085;49.452;8.502;2022-07-18T04:10:10;2.05;;;1.40;;
12048;SDS011;6085;49.452;8.502;2022-07-18T04:14:13;2.10;;;1.55;;
12048;SDS011;6085;49.452;8.502;2022-07-18T04:18:14;1.70;;;1.60;;
12048;SDS011;6085;49.452;8.502;2022-07-18T04:22:18;1.50;;;1.40;;
12048;SDS011;6085;49.452;8.502;2022-07-18T04:26:20;2.03;;;1.35;;
12048;SDS011;6085;49.452;8.502;2022-07-18T04:30:23;2.30;;;1.92;;
12048;SDS011;6085;49.452;8.502;2022-07-18T04:34:26;2.17;;;1.75;;
12048;SDS011;6085;49.452;8.502;2022-07-18T04:38:29;1.92;;;1.80;;
12048;SDS011;6085;49.452;8.502;2022-07-18T04:42:34;2.65;;;1.90;;
12048;SDS011;6085;49.452;8.502;2022-07-18T04:46:36;3.97;;;2.33;;
12048;SDS011;6085;49.452;8.502;2022-07-18T04:50:38;11.10;;;4.15;;
12048;SDS011;6085;49.452;8.502;2022-07-18T04:54:41;7.57;;;3.20;;
12048;SDS011;6085;49.452;8.502;2022-07-18T04:58:43;5.80;;;3.20;;
12048;SDS011;6085;49.452;8.502;2022-07-18T05:02:47;4.47;;;2.70;;
12048;SDS011;6085;49.452;8.502;2022-07-18T05:06:50;3.83;;;2.67;;
12048;SDS011;6085;49.452;8.502;2022-07-18T05:10:54;3.35;;;2.30;;
12048;SDS011;6085;49.452;8.502;2022-07-18T05:14:56;4.40;;;2.75;;
12048;SDS011;6085;49.452;8.502;2022-07-18T05:18:57;3.72;;;2.42;;
12048;SDS011;6085;49.452;8.502;2022-07-18T05:22:59;4.60;;;2.38;;
12048;SDS011;6085;49.452;8.502;2022-07-18T05:27:03;4.65;;;2.50;;
12048;SDS011;6085;49.452;8.502;2022-07-18T05:31:05;3.65;;;2.33;;
12048;SDS011;6085;49.452;8.502;2022-07-18T05:35:07;2.92;;;2.00;;
12048;SDS011;6085;49.452;8.502;2022-07-18T05:39:11;3.67;;;2.20;;
12048;SDS011;6085;49.452;8.502;2022-07-18T05:43:14;3.90;;;2.15;;
12048;SDS011;6085;49.452;8.502;2022-07-18T05:47:16;3.78;;;2.10;;
12048;SDS011;6085;49.452;8.502;2022-07-18T05:51:18;2.40;;;2.10;;
12048;SDS011;6085;49.452;8.502;2022-07-18T05:55:20;3.75;;;2.40;;
12048;SDS011;6085;49.452;8.502;2022-07-18T05:59:25;2.20;;;1.80;;
12048;SDS011;6085;49.452;8.502;2022-07-18T06:03:26;4.18;;;2.33;;
12048;SDS011;6085;49.452;8.502;2022-07-18T06:07:28;4.18;;;2.20;;
12048;SDS011;6085;49.452;8.502;2022-07-18T06:11:32;4.07;;;2.10;;
12048;SDS011;6085;49.452;8.502;2022-07-18T06:15:35;4.88;;;1.92;;
12048;SDS011;6085;49.452;8.502;2022-07-18T06:19:37;4.32;;;2.00;;
12048;SDS011;6085;49.452;8.502;2022-07-18T06:23:41;5.00;;;1.80;;
12048;SDS011;6085;49.452;8.502;2022-07-18T06:27:44;2.17;;;1.80;;
12048;SDS011;6085;49.452;8.502;2022-07-18T06:31:47;4.07;;;2.05;;
12048;SDS011;6085;49.452;8.502;2022-07-18T06:35:49;4.63;;;1.65;;
12048;SDS011;6085;49.452;8.502;2022-07-18T06:39:51;3.30;;;1.75;;
12048;SDS011;6085;49.452;8.502;2022-07-18T06:43:53;7.32;;;2.05;;
12048;SDS011;6085;49.452;8.502;2022-07-18T06:47:57;4.60;;;2.10;;
12048;SDS011;6085;49.452;8.502;2022-07-18T06:51:59;4.15;;;2.05;;
12048;SDS011;6085;49.452;8.502;2022-07-18T06:56:00;5.68;;;2.20;;
12048;SDS011;6085;49.452;8.502;2022-07-18T07:00:05;7.35;;;1.90;;
12048;SDS011;6085;49.452;8.502;2022-07-18T07:04:10;6.68;;;2.25;;
12048;SDS011;6085;49.452;8.502;2022-07-18T07:08:12;6.10;;;2.38;;
12048;SDS011;6085;49.452;8.502;2022-07-18T07:12:15;6.45;;;2.55;;
12048;SDS011;6085;49.452;8.502;2022-07-18T07:16:17;4.95;;;2.50;;
12048;SDS011;6085;49.452;8.502;2022-07-18T07:20:20;4.00;;;2.50;;
12048;SDS011;6085;49.452;8.502;2022-07-18T07:24:22;6.30;;;2.28;;
12048;SDS011;6085;49.452;8.502;2022-07-18T07:28:24;7.25;;;2.30;;
12048;SDS011;6085;49.452;8.502;2022-07-18T07:32:26;3.85;;;2.20;;
12048;SDS011;6085;49.452;8.502;2022-07-18T07:36:29;6.28;;;2.60;;
12048;SDS011;6085;49.452;8.502;2022-07-18T07:40:31;8.18;;;2.30;;
12048;SDS011;6085;49.452;8.502;2022-07-18T07:44:33;4.72;;;2.08;;
12048;SDS011;6085;49.452;8.502;2022-07-18T07:48:35;3.72;;;1.83;;
12048;SDS011;6085;49.452;8.502;2022-07-18T07:52:38;5.57;;;1.85;;
12048;SDS011;6085;49.452;8.502;2022-07-18T07:56:40;4.07;;;1.85;;
12048;SDS011;6085;49.452;8.502;2022-07-18T08:00:42;3.40;;;2.00;;
12048;SDS011;6085;49.452;8.502;2022-07-18T08:04:44;2.53;;;1.73;;
12048;SDS011;6085;49.452;8.502;2022-07-18T08:08:48;4.25;;;2.08;;
12048;SDS011;6085;49.452;8.502;2022-07-18T08:12:50;2.03;;;1.83;;
12048;SDS011;6085;49.452;8.502;2022-07-18T08:16:52;3.17;;;1.80;;
12048;SDS011;6085;49.452;8.502;2022-07-18T08:20:54;4.55;;;1.77;;
12048;SDS011;6085;49.452;8.502;2022-07-18T08:24:57;4.55;;;1.80;;
12048;SDS011;6085;49.452;8.502;2022-07-18T08:28:59;3.67;;;1.45;;
12048;SDS011;6085;49.452;8.502;2022-07-18T08:33:01;1.95;;;1.30;;
12048;SDS011;6085;49.452;8.502;2022-07-18T08:37:03;4.57;;;1.55;;
12048;SDS011;6085;49.452;8.502;2022-07-18T08:41:06;2.60;;;1.45;;
12048;SDS011;6085;49.452;8.502;2022-07-18T08:45:09;3.08;;;1.30;;
12048;SDS011;6085;49.452;8.502;2022-07-18T08:49:11;3.92;;;1.30;;
12048;SDS011;6085;49.452;8.502;2022-07-18T08:53:15;2.25;;;1.40;;
12048;SDS011;6085;49.452;8.502;2022-07-18T08:57:20;4.32;;;1.50;;
12048;SDS011;6085;49.452;8.502;2022-07-18T09:01:23;2.38;;;1.33;;
12048;SDS011;6085;49.452;8.502;2022-07-18T09:05:25;1.90;;;1.05;;
12048;SDS011;6085;49.452;8.502;2022-07-18T09:09:28;1.90;;;1.10;;
12048;SDS011;6085;49.452;8.502;2022-07-18T09:13:37;1.40;;;1.30;;
12048;SDS011;6085;49.452;8.502;2022-07-18T09:17:39;2.28;;;1.38;;
12048;SDS011;6085;49.452;8.502;2022-07-18T09:21:41;2.03;;;1.13;;
12048;SDS011;6085;49.452;8.502;2022-07-18T09:25:43;1.10;;;1.10;;
12048;SDS011;6085;49.452;8.502;2022-07-18T09:29:47;1.98;;;1.10;;
12048;SDS011;6085;49.452;8.502;2022-07-18T09:33:51;3.70;;;1.10;;
12048;SDS011;6085;49.452;8.502;2022-07-18T09:37:58;1.42;;;1.00;;
12048;SDS011;6085;49.452;8.502;2022-07-18T09:42:14;1.83;;;1.17;;
12048;SDS011;6085;49.452;8.502;2022-07-18T09:46:19;2.88;;;1.45;;
12048;SDS011;6085;49.452;8.502;2022-07-18T09:50:22;3.65;;;1.58;;
12048;SDS011;6085;49.452;8.502;2022-07-18T09:54:34;2.05;;;1.30;;
12048;SDS011;6085;49.452;8.502;2022-07-18T09:58:38;4.15;;;1.50;;
12048;SDS011;6085;49.452;8.502;2022-07-18T10:02:42;2.15;;;1.30;;
12048;SDS011;6085;49.452;8.502;2022-07-18T10:06:45;2.40;;;1.50;;
12048;SDS011;6085;49.452;8.502;2022-07-18T10:10:47;3.67;;;1.20;;
12048;SDS011;6085;49.452;8.502;2022-07-18T10:14:50;1.10;;;1.00;;
12048;SDS011;6085;49.452;8.502;2022-07-18T10:18:56;3.60;;;1.35;;
12048;SDS011;6085;49.452;8.502;2022-07-18T10:23:02;1.90;;;1.30;;
12048;SDS011;6085;49.452;8.502;2022-07-18T10:27:13;1.50;;;1.40;;
12048;SDS011;6085;49.452;8.502;2022-07-18T10:31:17;2.42;;;0.90;;
12048;SDS011;6085;49.452;8.502;2022-07-18T10:35:21;3.75;;;2.05;;
12048;SDS011;6085;49.452;8.502;2022-07-18T10:39:57;3.33;;;1.40;;
12048;SDS011;6085;49.452;8.502;2022-07-18T10:44:33;1.65;;;1.20;;
12048;SDS011;6085;49.452;8.502;2022-07-18T10:53:06;2.08;;;1.20;;
12048;SDS011;6085;49.452;8.502;2022-07-18T10:57:09;2.28;;;0.95;;
12048;SDS011;6085;49.452;8.502;2022-07-18T11:01:15;1.20;;;1.10;;
12048;SDS011;6085;49.452;8.502;2022-07-18T11:05:31;1.25;;;1.00;;
12048;SDS011;6085;49.452;8.502;2022-07-18T11:09:39;0.88;;;0.88;;
12048;SDS011;6085;49.452;8.502;2022-07-18T11:13:44;1.20;;;1.10;;
12048;SDS011;6085;49.452;8.502;2022-07-18T11:17:56;1.80;;;1.08;;
12048;SDS011;6085;49.452;8.502;2022-07-18T11:22:02;1.75;;;1.00;;
12048;SDS011;6085;49.452;8.502;2022-07-18T11:26:05;1.25;;;1.15;;
12048;SDS011;6085;49.452;8.502;2022-07-18T11:30:16;2.88;;;1.20;;
12048;SDS011;6085;49.452;8.502;2022-07-18T11:34:21;1.70;;;1.40;;
12048;SDS011;6085;49.452;8.502;2022-07-18T11:38:24;0.93;;;0.93;;
12048;SDS011;6085;49.452;8.502;2022-07-18T11:42:37;0.90;;;0.90;;
12048;SDS011;6085;49.452;8.502;2022-07-18T11:46:40;1.35;;;1.20;;
12048;SDS011;6085;49.452;8.502;2022-07-18T11:50:42;2.05;;;1.00;;
12048;SDS011;6085;49.452;8.502;2022-07-18T11:54:45;1.10;;;1.00;;
12048;SDS011;6085;49.452;8.502;2022-07-18T11:58:48;1.38;;;0.82;;
12048;SDS011;6085;49.452;8.502;2022-07-18T12:03:07;2.03;;;1.08;;
12048;SDS011;6085;49.452;8.502;2022-07-18T12:07:14;0.80;;;0.80;;
12048;SDS011;6085;49.452;8.502;2022-07-18T12:11:24;1.08;;;0.98;;
12048;SDS011;6085;49.452;8.502;2022-07-18T12:15:38;1.90;;;1.10;;
12048;SDS011;6085;49.452;8.502;2022-07-18T12:19:41;2.22;;;1.48;;
12048;SDS011;6085;49.452;8.502;2022-07-18T12:23:44;2.85;;;1.45;;
12048;SDS011;6085;49.452;8.502;2022-07-18T12:27:46;2.08;;;1.30;;
12048;SDS011;6085;49.452;8.502;2022-07-18T12:31:50;1.42;;;1.00;;
12048;SDS011;6085;49.452;8.502;2022-07-18T12:35:55;1.45;;;1.13;;
12048;SDS011;6085;49.452;8.502;2022-07-18T12:39:58;1.70;;;1.40;;
12048;SDS011;6085;49.452;8.502;2022-07-18T12:44:01;1.92;;;1.35;;
12048;SDS011;6085;49.452;8.502;2022-07-18T12:48:06;1.98;;;1.25;;
12048;SDS011;6085;49.452;8.502;2022-07-18T12:52:09;2.72;;;1.20;;
12048;SDS011;6085;49.452;8.502;2022-07-18T12:56:11;1.55;;;1.45;;
12048;SDS011;6085;49.452;8.502;2022-07-18T13:00:13;2.55;;;1.30;;
12048;SDS011;6085;49.452;8.502;2022-07-18T13:04:16;1.67;;;1.20;;
12048;SDS011;6085;49.452;8.502;2022-07-18T13:08:18;2.58;;;1.13;;
12048;SDS011;6085;49.452;8.502;2022-07-18T13:12:22;2.25;;;1.50;;
12048;SDS011;6085;49.452;8.502;2022-07-18T13:16:24;3.92;;;1.90;;
12048;SDS011;6085;49.452;8.502;2022-07-18T13:20:27;4.07;;;1.95;;
12048;SDS011;6085;49.452;8.502;2022-07-18T13:24:30;1.92;;;1.33;;
12048;SDS011;6085;49.452;8.502;2022-07-18T13:28:32;2.13;;;1.88;;
12048;SDS011;6085;49.452;8.502;2022-07-18T13:32:34;1.40;;;1.20;;
12048;SDS011;6085;49.452;8.502;2022-07-18T13:36:38;1.55;;;1.35;;
12048;SDS011;6085;49.452;8.502;2022-07-18T13:40:40;1.10;;;1.00;;
12048;SDS011;6085;49.452;8.502;2022-07-18T13:44:42;1.60;;;1.30;;
12048;SDS011;6085;49.452;8.502;2022-07-18T13:48:45;1.98;;;1.40;;
12048;SDS011;6085;49.452;8.502;2022-07-18T13:52:51;1.25;;;1.15;;
12048;SDS011;6085;49.452;8.502;2022-07-18T13:56:53;1.15;;;1.05;;
12048;SDS011;6085;49.452;8.502;2022-07-18T14:00:54;1.40;;;1.30;;
12048;SDS011;6085;49.452;8.502;2022-07-18T14:04:57;1.33;;;1.08;;
12048;SDS011;6085;49.452;8.502;2022-07-18T14:09:00;3.67;;;1.45;;
12048;SDS011;6085;49.452;8.502;2022-07-18T14:13:02;1.45;;;1.00;;
12048;SDS011;6085;49.452;8.502;2022-07-18T14:17:04;2.35;;;1.40;;
12048;SDS011;6085;49.452;8.502;2022-07-18T14:21:06;3.15;;;1.35;;
12048;SDS011;6085;49.452;8.502;2022-07-18T14:25:10;1.98;;;1.27;;
12048;SDS011;6085;49.452;8.502;2022-07-18T14:29:13;2.85;;;1.27;;
12048;SDS011;6085;49.452;8.502;2022-07-18T14:33:15;2.25;;;1.23;;
12048;SDS011;6085;49.452;8.502;2022-07-18T14:37:17;1.42;;;1.33;;
12048;SDS011;6085;49.452;8.502;2022-07-18T14:41:20;2.85;;;1.58;;
12048;SDS011;6085;49.452;8.502;2022-07-18T14:45:22;3.30;;;1.33;;
12048;SDS011;6085;49.452;8.502;2022-07-18T14:49:24;1.40;;;1.30;;
12048;SDS011;6085;49.452;8.502;2022-07-18T14:53:29;1.77;;;1.40;;
12048;SDS011;6085;49.452;8.502;2022-07-18T14:57:32;1.60;;;1.38;;
12048;SDS011;6085;49.452;8.502;2022-07-18T15:01:34;1.60;;;1.25;;
12048;SDS011;6085;49.452;8.502;2022-07-18T15:05:36;3.28;;;1.17;;
12048;SDS011;6085;49.452;8.502;2022-07-18T15:09:38;1.33;;;1.23;;
12048;SDS011;6085;49.452;8.502;2022-07-18T15:13:41;1.25;;;1.15;;
12048;SDS011;6085;49.452;8.502;2022-07-18T15:17:43;2.28;;;1.33;;
12048;SDS011;6085;49.452;8.502;2022-07-18T15:21:45;1.17;;;1.10;;
12048;SDS011;6085;49.452;8.502;2022-07-18T15:25:47;3.50;;;1.38;;
12048;SDS011;6085;49.452;8.502;2022-07-18T15:29:50;2.42;;;1.40;;
12048;SDS011;6085;49.452;8.502;2022-07-18T15:33:52;2.13;;;1.50;;
12048;SDS011;6085;49.452;8.502;2022-07-18T15:37:55;1.45;;;1.35;;
12048;SDS011;6085;49.452;8.502;2022-07-18T15:41:57;1.75;;;1.30;;
12048;SDS011;6085;49.452;8.502;2022-07-18T15:46:00;2.25;;;1.30;;
12048;SDS011;6085;49.452;8.502;2022-07-18T15:50:02;1.20;;;1.10;;
12048;SDS011;6085;49.452;8.502;2022-07-18T15:54:04;1.45;;;1.30;;
12048;SDS011;6085;49.452;8.502;2022-07-18T15:58:06;2.33;;;1.48;;
12048;SDS011;6085;49.452;8.502;2022-07-18T16:02:09;1.80;;;1.48;;
12048;SDS011;6085;49.452;8.502;2022-07-18T16:06:11;1.50;;;1.40;;
12048;SDS011;6085;49.452;8.502;2022-07-18T16:10:13;2.10;;;1.30;;
12048;SDS011;6085;49.452;8.502;2022-07-18T16:14:15;1.60;;;1.50;;
12048;SDS011;6085;49.452;8.502;2022-07-18T16:18:19;1.20;;;1.10;;
12048;SDS011;6085;49.452;8.502;2022-07-18T16:22:21;1.42;;;1.25;;
12048;SDS011;6085;49.452;8.502;2022-07-18T16:26:23;1.48;;;1.20;;
12048;SDS011;6085;49.452;8.502;2022-07-18T16:30:25;1.45;;;1.35;;
12048;SDS011;6085;49.452;8.502;2022-07-18T16:34:29;1.60;;;1.50;;
12048;SDS011;6085;49.452;8.502;2022-07-18T16:38:31;1.63;;;1.50;;
12048;SDS011;6085;49.452;8.502;2022-07-18T16:42:33;1.80;;;1.50;;
12048;SDS011;6085;49.452;8.502;2022-07-18T16:46:35;1.70;;;1.60;;
12048;SDS011;6085;49.452;8.502;2022-07-18T16:50:39;2.30;;;1.40;;
12048;SDS011;6085;49.452;8.502;2022-07-18T16:54:42;1.67;;;1.58;;
12048;SDS011;6085;49.452;8.502;2022-07-18T16:58:44;3.85;;;1.88;;
12048;SDS011;6085;49.452;8.502;2022-07-18T17:02:47;1.48;;;1.38;;
12048;SDS011;6085;49.452;8.502;2022-07-18T17:06:51;1.27;;;1.17;;
12048;SDS011;6085;49.452;8.502;2022-07-18T17:10:53;2.17;;;1.48;;
12048;SDS011;6085;49.452;8.502;2022-07-18T17:14:55;2.45;;;1.83;;
12048;SDS011;6085;49.452;8.502;2022-07-18T17:18:58;1.95;;;1.52;;
12048;SDS011;6085;49.452;8.502;2022-07-18T17:23:02;2.70;;;2.17;;
12048;SDS011;6085;49.452;8.502;2022-07-18T17:27:04;1.63;;;1.52;;
12048;SDS011;6085;49.452;8.502;2022-07-18T17:31:07;1.52;;;1.42;;
12048;SDS011;6085;49.452;8.502;2022-07-18T17:35:09;3.28;;;1.63;;
12048;SDS011;6085;49.452;8.502;2022-07-18T17:39:15;5.20;;;1.70;;
12048;SDS011;6085;49.452;8.502;2022-07-18T17:43:40;3.60;;;1.70;;
12048;SDS011;6085;49.452;8.502;2022-07-18T17:47:50;2.00;;;1.75;;
12048;SDS011;6085;49.452;8.502;2022-07-18T17:51:59;3.20;;;1.65;;
12048;SDS011;6085;49.452;8.502;2022-07-18T17:56:17;1.90;;;1.55;;
12048;SDS011;6085;49.452;8.502;2022-07-18T18:04:56;2.78;;;1.90;;
12048;SDS011;6085;49.452;8.502;2022-07-18T18:09:11;1.85;;;1.75;;
12048;SDS011;6085;49.452;8.502;2022-07-18T18:13:19;2.45;;;1.70;;
12048;SDS011;6085;49.452;8.502;2022-07-18T18:17:35;2.38;;;1.88;;
12048;SDS011;6085;49.452;8.502;2022-07-18T18:21:52;3.67;;;1.73;;
12048;SDS011;6085;49.452;8.502;2022-07-18T18:25:54;2.28;;;1.73;;
12048;SDS011;6085;49.452;8.502;2022-07-18T18:29:58;1.70;;;1.50;;
12048;SDS011;6085;49.452;8.502;2022-07-18T18:33:59;1.83;;;1.50;;
12048;SDS011;6085;49.452;8.502;2022-07-18T18:38:01;1.70;;;1.60;;
12048;SDS011;6085;49.452;8.502;2022-07-18T18:42:04;3.13;;;1.90;;
12048;SDS011;6085;49.452;8.502;2022-07-18T18:46:07;2.03;;;1.63;;
12048;SDS011;6085;49.452;8.502;2022-07-18T18:50:09;2.13;;;1.80;;
12048;SDS011;6085;49.452;8.502;2022-07-18T18:54:12;2.47;;;1.67;;
12048;SDS011;6085;49.452;8.502;2022-07-18T18:58:15;2.03;;;1.83;;
12048;SDS011;6085;49.452;8.502;2022-07-18T19:02:18;3.88;;;2.00;;
12048;SDS011;6085;49.452;8.502;2022-07-18T19:06:20;2.83;;;2.10;;
12048;SDS011;6085;49.452;8.502;2022-07-18T19:10:24;2.65;;;1.60;;
12048;SDS011;6085;49.452;8.502;2022-07-18T19:14:25;1.90;;;1.77;;
12048;SDS011;6085;49.452;8.502;2022-07-18T19:18:29;1.48;;;1.38;;
12048;SDS011;6085;49.452;8.502;2022-07-18T19:22:31;2.30;;;1.83;;
12048;SDS011;6085;49.452;8.502;2022-07-18T19:26:33;2.10;;;1.90;;
12048;SDS011;6085;49.452;8.502;2022-07-18T19:30:35;2.10;;;1.83;;
12048;SDS011;6085;49.452;8.502;2022-07-18T19:34:38;2.85;;;1.90;;
12048;SDS011;6085;49.452;8.502;2022-07-18T19:38:40;1.55;;;1.45;;
12048;SDS011;6085;49.452;8.502;2022-07-18T19:42:42;1.95;;;1.77;;
12048;SDS011;6085;49.452;8.502;2022-07-18T19:46:44;2.90;;;2.08;;
12048;SDS011;6085;49.452;8.502;2022-07-18T19:50:48;1.80;;;1.70;;
12048;SDS011;6085;49.452;8.502;2022-07-18T19:54:49;2.58;;;1.50;;
12048;SDS011;6085;49.452;8.502;2022-07-18T19:58:51;2.33;;;1.60;;
12048;SDS011;6085;49.452;8.502;2022-07-18T20:02:53;1.73;;;1.63;;
12048;SDS011;6085;49.452;8.502;2022-07-18T20:06:58;2.55;;;1.90;;
12048;SDS011;6085;49.452;8.502;2022-07-18T20:11:00;1.48;;;1.38;;
12048;SDS011;6085;49.452;8.502;2022-07-18T20:15:02;2.20;;;1.65;;
12048;SDS011;6085;49.452;8.502;2022-07-18T20:19:05;2.22;;;1.60;;
12048;SDS011;6085;49.452;8.502;2022-07-18T20:23:08;2.00;;;1.80;;
12048;SDS011;6085;49.452;8.502;2022-07-18T20:27:10;1.67;;;1.52;;
12048;SDS011;6085;49.452;8.502;2022-07-18T20:31:12;2.25;;;1.70;;
12048;SDS011;6085;49.452;8.502;2022-07-18T20:35:14;1.83;;;1.73;;
12048;SDS011;6085;49.452;8.502;2022-07-18T20:39:18;1.77;;;1.67;;
12048;SDS011;6085;49.452;8.502;2022-07-18T20:43:20;2.88;;;1.63;;
12048;SDS011;6085;49.452;8.502;2022-07-18T20:47:22;2.55;;;1.98;;
12048;SDS011;6085;49.452;8.502;2022-07-18T20:51:25;1.75;;;1.63;;
12048;SDS011;6085;49.452;8.502;2022-07-18T20:55:28;2.58;;;1.70;;
12048;SDS011;6085;49.452;8.502;2022-07-18T20:59:32;2.47;;;1.83;;
12048;SDS011;6085;49.452;8.502;2022-07-18T21:03:34;3.92;;;2.40;;
12048;SDS011;6085;49.452;8.502;2022-07-18T21:07:36;3.30;;;2.20;;
12048;SDS011;6085;49.452;8.502;2022-07-18T21:11:39;2.90;;;2.40;;
12048;SDS011;6085;49.452;8.502;2022-07-18T21:15:41;4.00;;;1.95;;
12048;SDS011;6085;49.452;8.502;2022-07-18T21:19:43;2.22;;;2.03;;
12048;SDS011;6085;49.452;8.502;2022-07-18T21:23:45;2.22;;;2.03;;
12048;SDS011;6085;49.452;8.502;2022-07-18T21:27:49;4.55;;;2.15;;
12048;SDS011;6085;49.452;8.502;2022-07-18T21:31:52;3.15;;;2.45;;
12048;SDS011;6085;49.452;8.502;2022-07-18T21:35:54;3.50;;;2.50;;
12048;SDS011;6085;49.452;8.502;2022-07-18T21:39:56;2.70;;;2.10;;
12048;SDS011;6085;49.452;8.502;2022-07-18T21:43:59;2.97;;;2.33;;
12048;SDS011;6085;49.452;8.502;2022-07-18T21:48:01;4.32;;;2.35;;
12048;SDS011;6085;49.452;8.502;2022-07-18T21:52:03;3.40;;;2.47;;
12048;SDS011;6085;49.452;8.502;2022-07-18T21:56:05;2.80;;;2.60;;
12048;SDS011;6085;49.452;8.502;2022-07-18T22:00:10;3.97;;;2.70;;
12048;SDS011;6085;49.452;8.502;2022-07-18T22:04:14;3.78;;;2.47;;
12048;SDS011;6085;49.452;8.502;2022-07-18T22:08:16;3.42;;;2.47;;
12048;SDS011;6085;49.452;8.502;2022-07-18T22:12:18;3.28;;;2.78;;
12048;SDS011;6085;49.452;8.502;2022-07-18T22:16:22;2.72;;;2.42;;
12048;SDS011;6085;49.452;8.502;2022-07-18T22:20:24;3.22;;;2.63;;
12048;SDS011;6085;49.452;8.502;2022-07-18T22:24:26;4.15;;;3.15;;
12048;SDS011;6085;49.452;8.502;2022-07-18T22:28:28;3.17;;;2.47;;
12048;SDS011;6085;49.452;8.502;2022-07-18T22:32:31;2.85;;;2.30;;
12048;SDS011;6085;49.452;8.502;2022-07-18T22:36:33;4.55;;;2.70;;
12048;SDS011;6085;49.452;8.502;2022-07-18T22:40:35;2.63;;;2.40;;
12048;SDS011;6085;49.452;8.502;2022-07-18T22:44:37;2.83;;;2.28;;
12048;SDS011;6085;49.452;8.502;2022-07-18T22:48:40;3.00;;;2.70;;
12048;SDS011;6085;49.452;8.502;2022-07-18T22:52:42;3.70;;;2.45;;
12048;SDS011;6085;49.452;8.502;2022-07-18T22:56:44;3.05;;;2.78;;
12048;SDS011;6085;49.452;8.502;2022-07-18T23:00:47;3.25;;;2.45;;
12048;SDS011;6085;49.452;8.502;2022-07-18T23:04:50;4.20;;;2.58;;
12048;SDS011;6085;49.452;8.502;2022-07-18T23:08:52;6.10;;;2.67;;
12048;SDS011;6085;49.452;8.502;2022-07-18T23:12:54;2.95;;;2.30;;
12048;SDS011;6085;49.452;8.502;2022-07-18T23:16:56;3.65;;;2.70;;
12048;SDS011;6085;49.452;8.502;2022-07-18T23:21:00;3.33;;;2.40;;
12048;SDS011;6085;49.452;8.502;2022-07-18T23:25:02;4.00;;;2.55;;
12048;SDS011;6085;49.452;8.502;2022-07-18T23:29:04;4.38;;;2.90;;
12048;SDS011;6085;49.452;8.502;2022-07-18T23:33:06;3.17;;;2.58;;
12048;SDS011;6085;49.452;8.502;2022-07-18T23:37:09;2.58;;;2.38;;
12048;SDS011;6085;49.452;8.502;2022-07-18T23:41:11;3.05;;;2.30;;
12048;SDS011;6085;49.452;8.502;2022-07-18T23:45:13;2.83;;;2.58;;
12048;SDS011;6085;49.452;8.502;2022-07-18T23:49:16;3.10;;;2.13;;
12048;SDS011;6085;49.452;8.502;2022-07-18T23:53:19;5.07;;;2.60;;
12048;SDS011;6085;49.452;8.502;2022-07-18T23:57:21;2.85;;;2.55;;
